メインページ
METAR-TAF:

METAR-TAF

空港 :

Gamèti, ノースウェスト準州, カナダ

緯度: 64-06-58N, 経度: 117-18-35W, 海抜: 221m

現時点の気象観測

当レポートは9時間25分前の21:00(UTC)に作成
無風
気温 -38°C
湿度 66%
気圧 1012 hPa
視程: 24.1km
高度10000ftの雲はほとんどない

METAR: CYRA 142100Z 00000KT 15SM FEW100 M38/M42 A2989 RMK AC1 AC TR S0 AFT 16UTC / 33 / SNW CVR/MEDIUM PACK LAST STFD OBS/NEXT 151500UTC SLP168

時間: 23:25 (06:25 UTC)


TAF: 見つかりません

4,000以上の空港の気象観測と天気予報(METAR報とTAF報)

利用可能な観測所は地図上に黄色い丸と赤い丸で示す。

丸の上にカーソルを重ねると観測所名を参照できる。

次にクリックすると気象観測と天気予報を参照できる。

マップの切り替え:黒色「×」印の緑ボタンをクリックして拡大、「-」印の緑ボタンをクリックして縮小、緑色の三角印をクリックして隣りの地図に切り替え


METAR-TAF: